Immokalee, Florida
Current Conditions -  °F | °C
As of 10:35 PM on Sunday 21 Dec 2014 (Local Time) from KIMM Reporting Station
Broken Clouds Broken Clouds  
Wind Chill: 21°   Ceiling: 9500
Heat Index: 21°   Visibility: 8mi
Dew Point: 21°   Wind: 0mph
Humidity: 100%   Direction: NA
Pressure: 30.06"   Gusts: NA
Location:  26.42°N, 81.42°W
Report Text: KIMM 220335Z AUTO 00000KT 8SM BKN095 21/21 A3006 RMK A01 P000
Loading
Personal Weather Stations






























Interactive Weather Map New forecast layout! Learn more

10-Day Weather Forecast

Advertisements
Track Severe Weather on mobile